ROK weather

Rockhampton Airport
Rockhampton, Queensland, Australia

Public forecast

Using degrees Celsius for public forecast. Weather courtesy of forecast.io.

METAR (pilot weather report)

Retrieved 2018/07/18 00:30 UTC (0 seconds ago):

YBRK 180030Z 17004KT 150V210 CAVOK 21/12 Q1021 RF00.0/000.0

TAF (pilot weather forecast)

Forecast is more than 12 hours old.

Retrieved 2018/07/17 00:37 UTC (24 hours ago):

TAF YBRK 172306Z 1800/1824 13007KT CAVOK FM180600 05006KT CAVOK FM181000 VRB04KT CAVOK FM181500 VRB02KT 9999 MIFG NSC PROB40 1818/1823 0500 FG BKN001